Time;durP1;ratioP1;P1;durP2;ratioP2;P2;SDS_P1;SDS_P2;PMS_P1;PMS_P2;Temp;Humidity;BMP_temperature;BMP_pressure;BME280_temperature;BME280_humidity;BME280_pressure;Samples;Min_cycle;Max_cycle;Signal;HPM_P1;HPM_P2
2023/01/01 00:00:57;;;;;;;104.68;53.08;;;;;;;5.28;77.56;102371.88;5103774;28;20043;-88
2023/01/01 00:03:26;;;;;;;117.93;55.60;;;;;;;5.18;77.23;102349.34;5117817;27;20017;-88
2023/01/01 00:05:52;;;;;;;118.03;58.05;;;;;;;5.49;77.21;102398.31;5135097;27;20261;-87
2023/01/01 00:08:18;;;;;;;123.72;59.90;;;;;;;5.29;76.98;102365.63;5116857;27;20023;-88
2023/01/01 00:10:43;;;;;;;118.70;60.00;;;;;;;5.46;76.79;102387.84;5121982;27;20034;-88
2023/01/01 00:13:11;;;;;;;118.97;57.83;;;;;;;5.24;76.56;102367.69;5119577;27;20293;-87
2023/01/01 00:15:37;;;;;;;118.35;57.75;;;;;;;5.43;76.72;102409.31;5101930;28;20065;-87
2023/01/01 00:18:02;;;;;;;117.18;57.08;;;;;;;5.34;76.77;102377.81;5097840;28;20023;-87
2023/01/01 00:20:28;;;;;;;117.28;57.08;;;;;;;5.41;76.29;102374.75;5108718;28;20126;-87
2023/01/01 00:22:54;;;;;;;113.95;55.88;;;;;;;5.42;76.04;102380.94;5095636;28;20035;-88
2023/01/01 00:25:19;;;;;;;117.97;55.10;;;;;;;5.51;76.31;102409.78;5097943;28;20050;-87
2023/01/01 00:27:45;;;;;;;115.60;54.72;;;;;;;5.45;76.53;102418.09;5117369;28;20456;-88
2023/01/01 00:30:11;;;;;;;104.57;51.57;;;;;;;5.35;76.48;102400.91;5097550;27;20094;-87
2023/01/01 00:32:36;;;;;;;103.28;54.80;;;;;;;5.33;76.82;102419.63;5114628;27;20063;-87
2023/01/01 00:35:02;;;;;;;100.22;50.42;;;;;;;5.07;77.19;102392.59;5131228;27;20053;-87
2023/01/01 00:37:28;;;;;;;89.20;44.72;;;;;;;4.94;77.41;102374.66;5121580;27;20018;-88
2023/01/01 00:39:53;;;;;;;85.28;42.25;;;;;;;5.00;77.33;102374.34;5130534;27;20035;-88
2023/01/01 00:42:19;;;;;;;80.63;41.53;;;;;;;5.09;77.36;102405.84;5122698;28;20032;-87
2023/01/01 00:44:44;;;;;;;78.45;40.33;;;;;;;5.14;77.41;102402.94;5124709;27;20081;-88
2023/01/01 00:47:10;;;;;;;83.60;42.20;;;;;;;4.98;77.38;102371.75;5114044;28;20046;-87
2023/01/01 00:49:35;;;;;;;88.23;41.80;;;;;;;4.99;77.42;102391.31;5124886;28;20061;-88
2023/01/01 00:52:01;;;;;;;79.55;41.13;;;;;;;4.96;77.66;102394.09;5120887;28;20026;-86
2023/01/01 00:54:27;;;;;;;83.70;40.92;;;;;;;4.79;77.76;102377.22;5140193;27;20027;-88
2023/01/01 00:56:52;;;;;;;86.93;41.13;;;;;;;5.05;77.37;102401.63;5111555;27;20023;-88
2023/01/01 00:59:18;;;;;;;82.20;41.50;;;;;;;4.95;77.39;102376.41;5148127;27;20357;-89
2023/01/01 01:01:43;;;;;;;80.97;41.30;;;;;;;4.81;77.99;102353.16;5117175;27;20031;-89
2023/01/01 01:04:09;;;;;;;83.07;42.10;;;;;;;5.08;77.10;102377.47;5129292;27;20031;-87
2023/01/01 01:06:34;;;;;;;80.10;41.78;;;;;;;4.92;77.54;102360.59;5110294;27;20043;-87
2023/01/01 01:09:00;;;;;;;86.32;43.38;;;;;;;5.06;77.71;102384.69;5116617;27;20031;-87
2023/01/01 01:11:26;;;;;;;82.73;42.63;;;;;;;5.12;77.63;102381.66;5146734;27;20031;-87
2023/01/01 01:13:52;;;;;;;84.63;42.70;;;;;;;5.22;77.12;102379.34;5131639;27;20260;-87
2023/01/01 01:16:23;;;;;;;78.65;40.38;;;;;;;5.15;77.12;102362.88;5113250;28;20387;-88
2023/01/01 01:18:50;;;;;;;80.38;41.13;;;;;;;5.13;77.13;102354.09;5141739;27;20093;-88
2023/01/01 01:21:17;;;;;;;73.60;41.08;;;;;;;5.41;76.31;102380.09;5108897;27;20073;-87
2023/01/01 01:23:42;;;;;;;79.93;41.78;;;;;;;5.42;76.26;102362.28;5125743;28;20019;-86
2023/01/01 01:26:13;;;;;;;77.43;41.28;;;;;;;5.24;76.61;102345.47;5108828;28;20062;-91
2023/01/01 01:28:39;;;;;;;78.88;41.63;;;;;;;5.24;76.07;102324.13;5123465;28;20093;-88
2023/01/01 01:31:05;;;;;;;83.80;40.97;;;;;;;5.10;76.76;102343.56;5127530;28;20069;-88
2023/01/01 01:33:30;;;;;;;75.55;41.20;;;;;;;5.09;77.08;102357.84;5094994;28;20035;-87
2023/01/01 01:35:56;;;;;;;84.07;40.78;;;;;;;4.83;77.61;102348.59;5121173;27;20047;-87
2023/01/01 01:38:21;;;;;;;78.80;38.30;;;;;;;5.03;77.57;102379.50;5141542;27;20050;-88
2023/01/01 01:40:47;;;;;;;76.47;38.28;;;;;;;4.74;77.84;102349.97;5124389;28;20026;-87
2023/01/01 01:43:45;;;;;;;69.35;36.72;;;;;;;4.88;77.87;102373.22;5110475;27;20035;-87
2023/01/01 01:46:19;;;;;;;69.90;36.55;;;;;;;4.68;78.00;102360.94;5155019;27;20027;-82
2023/01/01 01:48:46;;;;;;;67.55;34.50;;;;;;;4.61;78.54;102356.88;5135787;28;20032;-88
2023/01/01 01:51:13;;;;;;;66.10;33.08;;;;;;;4.62;78.08;102353.28;5115421;28;20027;-85
2023/01/01 01:53:41;;;;;;;64.38;33.08;;;;;;;4.73;78.21;102372.22;5111519;28;20035;-86
2023/01/01 01:56:09;;;;;;;65.80;34.92;;;;;;;4.40;78.56;102341.09;5129548;28;20064;-88
2023/01/01 01:58:35;;;;;;;63.33;33.70;;;;;;;4.54;78.78;102375.00;5114817;28;20038;-88
2023/01/01 02:01:01;;;;;;;63.80;35.28;;;;;;;4.53;78.82;102369.75;5116060;28;20088;-89
2023/01/01 02:03:30;;;;;;;74.23;36.73;;;;;;;4.30;79.54;102369.13;5125664;28;20030;-87
2023/01/01 02:05:56;;;;;;;71.85;36.10;;;;;;;4.38;79.37;102377.59;5127324;28;20440;-86
2023/01/01 02:08:21;;;;;;;65.90;34.75;;;;;;;4.06;80.16;102351.75;5127680;28;20099;-86
2023/01/01 02:10:47;;;;;;;74.13;34.40;;;;;;;4.22;79.94;102368.66;5111875;28;20335;-87
2023/01/01 02:13:13;;;;;;;63.85;34.15;;;;;;;4.09;79.99;102338.28;5129310;28;20039;-88
2023/01/01 02:16:00;;;;;;;68.80;32.63;;;;;;;4.07;79.80;102337.47;5127966;28;20030;-87
2023/01/01 02:18:52;;;;;;;66.47;34.25;;;;;;;4.11;80.35;102360.34;5122726;28;20027;-87
2023/01/01 02:21:24;;;;;;;69.95;33.00;;;;;;;3.97;80.39;102340.59;5123687;28;20042;-88
2023/01/01 02:24:22;;;;;;;67.75;33.22;;;;;;;4.14;80.31;102365.50;5125496;28;20096;-88
2023/01/01 02:26:57;;;;;;;65.50;32.58;;;;;;;4.13;80.43;102361.13;5126745;28;20038;-87
2023/01/01 02:29:51;;;;;;;67.25;31.38;;;;;;;4.01;80.52;102351.97;5129070;28;20054;-87
2023/01/01 02:32:22;;;;;;;65.28;32.70;;;;;;;4.07;80.82;102362.28;5127556;28;20088;-87
2023/01/01 02:35:37;;;;;;;63.25;33.03;;;;;;;3.90;80.94;102341.00;5120736;28;20031;-88
2023/01/01 02:38:11;;;;;;;;;;;;;;;4.02;81.09;102362.53;5131090;28;20032;-88
2023/01/01 02:40:48;;;;;;;61.67;30.08;;;;;;;3.96;80.92;102354.88;5130542;28;19907;-87
2023/01/01 02:43:13;;;;;;;63.00;31.77;;;;;;;3.88;81.29;102341.06;5125486;28;20027;-88
2023/01/01 02:45:39;;;;;;;76.05;33.72;;;;;;;3.74;81.38;102324.94;5120450;28;20028;-88
2023/01/01 02:48:06;;;;;;;68.78;33.97;;;;;;;3.74;81.90;102343.56;5121068;28;20057;-88
2023/01/01 02:50:31;;;;;;;62.60;31.48;;;;;;;3.77;82.21;102364.72;5114064;28;20027;-87
2023/01/01 02:53:07;;;;;;;66.25;32.00;;;;;;;3.84;82.15;102366.13;5137108;28;20027;-89
2023/01/01 02:56:04;;;;;;;62.30;32.45;;;;;;;3.82;82.31;102365.34;5128505;28;20043;-87
2023/01/01 03:01:45;;;;;;;61.97;31.02;;;;;;;3.68;82.63;102375.78;5119427;27;20096;-88
2023/01/01 03:04:23;;;;;;;67.22;32.33;;;;;;;3.68;82.79;102367.81;5112059;28;20055;-89
2023/01/01 03:07:10;;;;;;;69.10;32.88;;;;;;;3.60;83.03;102368.16;5110211;28;20027;-88
2023/01/01 03:09:44;;;;;;;67.00;31.40;;;;;;;3.62;83.15;102368.09;5129754;27;20031;-88
2023/01/01 03:12:19;;;;;;;63.53;30.73;;;;;;;3.66;82.93;102364.38;5146162;27;20023;-88
2023/01/01 03:14:57;;;;;;;67.07;31.30;;;;;;;3.68;83.07;102360.69;5146155;27;20071;-88
2023/01/01 03:17:37;;;;;;;64.65;30.92;;;;;;;3.75;82.74;102361.25;5113457;27;20027;-87
2023/01/01 03:20:07;;;;;;;59.85;30.05;;;;;;;3.55;83.01;102331.16;5113129;28;20020;-89
2023/01/01 03:22:34;;;;;;;57.75;29.10;;;;;;;3.50;82.80;102319.88;5121555;27;20023;-86
2023/01/01 03:25:06;;;;;;;56.67;28.70;;;;;;;3.64;82.57;102336.97;5113726;28;20071;-87
2023/01/01 03:27:46;;;;;;;53.85;28.73;;;;;;;3.66;82.34;102341.28;5136655;27;20033;-88
2023/01/01 03:30:12;;;;;;;52.08;28.20;;;;;;;3.55;82.64;102323.16;5100400;28;20023;-86
2023/01/01 03:33:07;;;;;;;54.33;28.80;;;;;;;3.62;82.65;102344.16;5121063;27;20055;-86
2023/01/01 03:35:39;;;;;;;54.90;26.55;;;;;;;3.75;82.39;102355.94;5118902;27;20055;-89
2023/01/01 03:38:13;;;;;;;50.67;26.85;;;;;;;3.70;82.24;102336.66;5128552;28;20049;-87
2023/01/01 03:40:39;;;;;;;52.28;27.38;;;;;;;3.66;82.04;102351.06;5127474;28;20024;-89
2023/01/01 03:43:11;;;;;;;52.33;26.40;;;;;;;3.75;82.26;102350.63;5123830;27;20061;-88
2023/01/01 03:45:38;;;;;;;54.97;26.25;;;;;;;3.62;82.01;102334.38;5127187;27;20119;-86
2023/01/01 03:48:04;;;;;;;53.85;27.98;;;;;;;3.77;82.13;102364.72;5122427;27;20027;-87
2023/01/01 03:51:05;;;;;;;51.10;27.77;;;;;;;3.65;82.15;102344.00;5128647;27;20023;-88
2023/01/01 03:53:41;;;;;;;50.40;26.45;;;;;;;3.83;81.90;102369.72;5118480;27;20054;-89
2023/01/01 03:56:18;;;;;;;51.42;26.38;;;;;;;3.69;81.90;102346.44;5123395;27;20082;-86
2023/01/01 03:59:00;;;;;;;48.08;25.02;;;;;;;3.64;81.90;102339.63;5129977;27;20024;-85
2023/01/01 04:01:28;;;;;;;46.83;24.45;;;;;;;3.78;82.49;102367.28;5128929;27;20019;-88
2023/01/01 04:03:54;;;;;;;47.00;24.80;;;;;;;3.61;82.29;102338.00;5130975;27;20030;-87
2023/01/01 04:06:20;;;;;;;51.15;24.10;;;;;;;3.72;82.31;102348.97;5130868;27;20087;-87
2023/01/01 04:08:45;;;;;;;48.08;24.40;;;;;;;3.83;82.66;102375.03;5100420;27;20348;-88
2023/01/01 04:14:01;;;;;;;45.67;24.98;;;;;;;3.94;81.78;102372.72;5122215;28;20042;-86
2023/01/01 04:16:27;;;;;;;52.13;25.38;;;;;;;3.78;81.74;102361.94;5132554;27;20022;-87
2023/01/01 04:18:52;;;;;;;47.13;25.90;;;;;;;3.84;81.66;102376.78;5107392;28;20023;-86
2023/01/01 04:21:18;;;;;;;48.90;25.57;;;;;;;3.89;81.61;102390.69;5117963;27;20034;-88
2023/01/01 04:23:43;;;;;;;53.77;26.63;;;;;;;3.81;81.79;102388.41;5137838;27;20422;-87
2023/01/01 04:26:14;;;;;;;58.30;26.57;;;;;;;3.68;82.19;102381.97;5108755;28;20361;-86
2023/01/01 04:28:40;;;;;;;50.38;26.73;;;;;;;3.63;82.10;102376.00;5145029;27;20095;-85
2023/01/01 04:31:06;;;;;;;;;;;;;;;3.71;82.06;102396.91;5137581;27;20062;-87
2023/01/01 04:33:31;;;;;;;;;;;;;;;3.63;82.17;102393.75;5127281;28;19911;-88
2023/01/01 04:36:02;;;;;;;51.83;25.40;;;;;;;3.64;82.01;102395.50;5127664;28;19908;-87
2023/01/01 04:38:28;;;;;;;54.67;25.25;;;;;;;3.28;82.68;102367.06;5114603;27;20023;-89
2023/01/01 04:40:57;;;;;;;53.97;26.83;;;;;;;3.22;83.01;102351.38;5144405;27;20034;-88
2023/01/01 04:43:23;;;;;;;52.60;26.52;;;;;;;3.35;83.11;102387.09;5132844;27;20285;-87
2023/01/01 04:45:58;;;;;;;48.23;24.37;;;;;;;3.42;82.70;102385.00;5113181;27;20022;-88
2023/01/01 04:48:23;;;;;;;55.53;26.30;;;;;;;3.37;82.13;102372.81;5108253;28;20035;-88
2023/01/01 04:51:00;;;;;;;51.88;26.83;;;;;;;3.27;82.13;102355.53;5122380;27;20061;-87
2023/01/01 04:53:27;;;;;;;54.58;27.48;;;;;;;3.47;82.18;102406.94;5116243;27;20031;-89
2023/01/01 04:55:53;;;;;;;54.30;26.77;;;;;;;3.21;82.21;102370.91;5144059;27;20030;-87
2023/01/01 04:58:18;;;;;;;51.03;27.40;;;;;;;3.28;82.25;102383.00;5117825;27;20023;-88
2023/01/01 05:00:49;;;;;;;60.03;27.73;;;;;;;3.51;81.95;102406.72;5145580;27;20340;-87
2023/01/01 05:03:14;;;;;;;55.20;28.27;;;;;;;3.56;81.68;102398.53;5126317;27;20307;-87
2023/01/01 05:05:40;;;;;;;55.03;27.83;;;;;;;3.46;81.52;102383.91;5116368;27;20023;-88
2023/01/01 05:08:06;;;;;;;58.38;27.60;;;;;;;3.50;82.03;102406.78;5136828;27;20049;-86
2023/01/01 05:10:31;;;;;;;57.45;27.15;;;;;;;3.34;81.95;102374.72;5129992;28;20015;-84
2023/01/01 05:12:57;;;;;;;53.13;26.97;;;;;;;3.18;82.12;102361.28;5117959;28;20031;-85
2023/01/01 05:15:22;;;;;;;58.47;27.98;;;;;;;3.13;82.52;102368.63;5127101;28;20352;-90
2023/01/01 05:17:48;;;;;;;48.93;26.77;;;;;;;3.16;82.81;102379.09;5102724;27;20168;-87
2023/01/01 05:20:13;;;;;;;53.57;25.63;;;;;;;3.32;82.41;102379.25;5128583;28;20030;-88
2023/01/01 05:22:39;;;;;;;53.33;25.17;;;;;;;3.35;82.79;102395.94;5142752;27;20741;-87
2023/01/01 05:25:05;;;;;;;49.67;24.75;;;;;;;3.31;82.74;102381.06;5148976;27;20276;-88
2023/01/01 05:27:30;;;;;;;49.85;23.38;;;;;;;3.52;83.11;102413.75;5122010;28;20071;-87
2023/01/01 05:29:57;;;;;;;45.77;21.40;;;;;;;3.63;83.01;102405.28;5107395;27;20027;-87
2023/01/01 05:32:23;;;;;;;42.13;22.38;;;;;;;3.74;82.75;102408.25;5116290;27;20017;-89
2023/01/01 05:34:48;;;;;;;47.17;22.45;;;;;;;3.72;82.70;102409.28;5146318;27;20039;-87
2023/01/01 05:37:14;;;;;;;46.55;23.55;;;;;;;3.83;82.31;102401.63;5104578;28;20027;-88
2023/01/01 05:39:39;;;;;;;48.22;24.23;;;;;;;3.73;81.83;102381.75;5114842;28;20134;-87
2023/01/01 05:42:05;;;;;;;42.60;23.20;;;;;;;3.90;81.66;102392.41;5104006;27;20031;-87
2023/01/01 05:44:30;;;;;;;46.97;24.20;;;;;;;3.71;81.62;102373.84;5153507;27;20297;-87
2023/01/01 05:47:06;;;;;;;45.30;23.27;;;;;;;3.95;81.60;102409.00;5116946;27;20276;-89
2023/01/01 05:49:35;;;;;;;47.50;24.13;;;;;;;3.96;81.44;102416.06;5122254;28;20046;-88
2023/01/01 05:52:00;;;;;;;49.83;24.02;;;;;;;3.74;81.37;102394.09;5114235;28;20027;-86
2023/01/01 05:54:26;;;;;;;50.47;24.73;;;;;;;3.84;81.18;102403.38;5106516;28;20031;-87
2023/01/01 05:56:52;;;;;;;48.07;24.90;;;;;;;3.69;81.04;102373.03;5112570;28;20024;-88
2023/01/01 05:59:20;;;;;;;51.60;25.92;;;;;;;3.68;80.78;102378.47;5109902;28;20023;-88
2023/01/01 06:01:46;;;;;;;51.85;25.17;;;;;;;3.84;80.72;102407.81;5096504;28;20029;-86
2023/01/01 06:04:12;;;;;;;55.08;26.25;;;;;;;3.69;80.36;102369.53;5108889;28;20016;-88
2023/01/01 06:06:37;;;;;;;54.35;25.77;;;;;;;3.75;80.46;102377.22;5135229;28;20038;-86
2023/01/01 06:09:03;;;;;;;59.20;26.80;;;;;;;3.78;80.60;102403.66;5146051;28;20414;-88
2023/01/01 06:11:29;;;;;;;62.17;26.95;;;;;;;3.76;81.00;102430.34;5127039;28;20265;-88
2023/01/01 06:13:56;;;;;;;54.08;27.33;;;;;;;3.67;81.14;102424.59;5091476;28;20036;-90
2023/01/01 06:16:22;;;;;;;60.45;26.15;;;;;;;3.75;80.42;102410.00;5107759;28;20028;-87
2023/01/01 06:18:47;;;;;;;53.85;25.48;;;;;;;3.92;80.14;102427.81;5099463;28;20135;-86
2023/01/01 06:21:17;;;;;;;53.92;24.65;;;;;;;3.61;80.62;102383.22;5107362;28;20098;-87
2023/01/01 06:23:42;;;;;;;52.83;25.73;;;;;;;3.68;80.64;102402.41;5138524;28;20016;-87
2023/01/01 06:26:13;;;;;;;51.03;24.20;;;;;;;3.67;80.65;102393.53;5091220;28;20036;-87
2023/01/01 06:28:39;;;;;;;46.38;23.83;;;;;;;3.76;81.06;102417.03;5106380;28;20994;-88
2023/01/01 06:31:05;;;;;;;47.05;23.33;;;;;;;3.94;81.27;102439.25;5108994;27;20043;-88
2023/01/01 06:33:31;;;;;;;40.72;22.70;;;;;;;3.85;81.08;102421.06;5143576;27;20078;-89
2023/01/01 06:35:57;;;;;;;45.97;22.90;;;;;;;3.85;81.21;102418.38;5132711;27;20026;-88
2023/01/01 06:38:23;;;;;;;43.85;22.35;;;;;;;4.00;81.20;102422.97;5126302;27;20106;-86
2023/01/01 06:40:59;;;;;;;46.72;22.08;;;;;;;4.20;80.85;102429.09;5114178;27;20019;-87
2023/01/01 06:43:24;;;;;;;38.35;21.50;;;;;;;4.09;80.47;102402.16;5109750;28;20488;-86
2023/01/01 06:46:04;;;;;;;43.47;22.73;;;;;;;4.29;80.02;102426.00;5130522;27;20131;-88
2023/01/01 06:48:30;;;;;;;43.50;22.35;;;;;;;4.25;79.78;102397.78;5141227;27;20058;-88
2023/01/01 06:50:56;;;;;;;37.60;20.08;;;;;;;4.47;79.14;102418.84;5112589;27;20034;-88
2023/01/01 06:53:25;;;;;;;41.95;21.23;;;;;;;4.54;78.81;102430.06;5131534;27;20445;-87
2023/01/01 06:55:51;;;;;;;47.47;23.20;;;;;;;4.74;78.48;102443.22;5130617;28;20023;-87
2023/01/01 06:58:16;;;;;;;42.97;23.63;;;;;;;4.64;79.02;102426.84;5121737;27;20030;-88
2023/01/01 07:00:45;;;;;;;41.10;21.87;;;;;;;4.69;78.47;102418.63;5116591;27;20053;-88
2023/01/01 07:03:10;;;;;;;41.60;22.02;;;;;;;4.85;78.40;102438.19;5144188;27;20400;-87
2023/01/01 07:05:36;;;;;;;43.65;23.50;;;;;;;4.82;77.76;102409.06;5121476;27;20080;-87
2023/01/01 07:08:02;;;;;;;47.70;24.40;;;;;;;5.01;77.66;102437.38;5127981;28;20015;-88
2023/01/01 07:10:27;;;;;;;45.00;25.08;;;;;;;5.25;77.41;102454.75;5106924;28;20036;-88
2023/01/01 07:12:53;;;;;;;47.93;23.47;;;;;;;5.33;76.71;102451.66;5118137;27;20039;-87
2023/01/01 07:15:18;;;;;;;46.13;23.02;;;;;;;5.33;76.66;102427.66;5122065;28;20035;-88
2023/01/01 07:17:44;;;;;;;47.15;24.10;;;;;;;5.69;75.48;102438.09;5099948;28;20032;-89
2023/01/01 07:20:10;;;;;;;43.85;24.00;;;;;;;5.87;74.40;102420.16;5107216;28;20024;-88
2023/01/01 07:22:36;;;;;;;42.38;22.80;;;;;;;7.21;69.86;102409.56;5101552;28;20028;-90
2023/01/01 07:25:02;;;;;;;43.17;22.75;;;;;;;9.33;63.00;102432.91;5127029;28;20046;-89
2023/01/01 07:27:27;;;;;;;37.53;22.13;;;;;;;11.08;56.78;102425.16;5144732;27;20106;-89
2023/01/01 07:29:53;;;;;;;36.97;21.33;;;;;;;12.57;52.59;102426.44;5131919;27;20042;-88
2023/01/01 07:32:18;;;;;;;45.28;21.10;;;;;;;14.33;47.41;102390.94;5131983;27;20027;-89
2023/01/01 07:34:44;;;;;;;35.70;21.23;;;;;;;15.86;43.12;102419.66;5133598;27;20030;-88
2023/01/01 07:37:24;;;;;;;30.67;20.10;;;;;;;17.03;40.21;102406.75;5129328;27;20015;-89
2023/01/01 07:39:49;;;;;;;31.42;20.67;;;;;;;17.99;36.89;102410.19;5123099;28;20043;-89
2023/01/01 07:42:15;;;;;;;;;;;;;;;18.90;35.50;102422.81;5099379;28;20030;-89
2023/01/01 07:44:40;;;;;;;31.38;21.65;;;;;;;19.42;34.03;102411.41;5140029;27;19907;-90
2023/01/01 07:47:21;;;;;;;33.17;21.58;;;;;;;20.70;32.37;102410.91;5127766;27;20023;-89
2023/01/01 07:49:46;;;;;;;35.95;23.10;;;;;;;21.69;29.83;102411.47;5156284;27;20048;-89
2023/01/01 07:52:12;;;;;;;32.67;22.65;;;;;;;22.34;28.84;102415.16;5157344;27;20018;-88
2023/01/01 07:54:38;;;;;;;39.33;23.42;;;;;;;23.04;27.93;102403.47;5134276;27;20027;-89
2023/01/01 07:57:03;;;;;;;34.10;23.27;;;;;;;22.58;28.15;102410.28;5147664;27;20023;-89
2023/01/01 07:59:29;;;;;;;32.22;23.15;;;;;;;23.31;27.03;102421.75;5152089;27;20027;-90
2023/01/01 08:01:55;;;;;;;35.20;22.65;;;;;;;24.39;25.39;102412.81;5125864;28;20038;-88
2023/01/01 08:04:20;;;;;;;29.67;21.73;;;;;;;25.20;24.42;102401.56;5137127;27;20027;-90
2023/01/01 08:06:46;;;;;;;32.92;21.70;;;;;;;25.74;24.10;102426.13;5147779;27;20026;-89
2023/01/01 08:09:11;;;;;;;27.73;21.23;;;;;;;26.67;23.19;102415.34;5124500;27;20043;-89
2023/01/01 08:11:37;;;;;;;32.60;21.58;;;;;;;26.62;22.77;102430.84;5136417;27;20124;-88
2023/01/01 08:14:02;;;;;;;29.35;20.75;;;;;;;25.67;23.61;102431.66;5141809;27;20039;-89
2023/01/01 08:16:28;;;;;;;33.13;22.05;;;;;;;26.47;22.62;102398.09;5124519;27;20030;-90
2023/01/01 08:18:54;;;;;;;29.15;21.00;;;;;;;25.95;23.32;102416.72;5136441;27;20043;-89
2023/01/01 08:21:19;;;;;;;29.92;21.52;;;;;;;25.84;23.24;102405.28;5113893;27;20026;-89
2023/01/01 08:23:45;;;;;;;29.30;20.92;;;;;;;26.28;22.91;102431.09;5145709;27;20073;-89
2023/01/01 08:26:15;;;;;;;25.58;20.25;;;;;;;27.28;21.82;102419.19;5124770;28;20047;-89
2023/01/01 08:28:41;;;;;;;25.73;20.30;;;;;;;27.14;21.64;102404.66;5120453;27;20042;-88
2023/01/01 08:31:06;;;;;;;27.98;20.85;;;;;;;27.90;20.88;102391.41;5141620;27;20035;-90
2023/01/01 08:33:32;;;;;;;26.30;21.58;;;;;;;27.89;20.86;102388.88;5134724;27;20015;-88
2023/01/01 08:35:57;;;;;;;27.08;20.10;;;;;;;29.01;19.86;102405.50;5132166;28;20027;-88
2023/01/01 08:38:23;;;;;;;27.27;19.77;;;;;;;29.80;19.36;102402.16;5162085;27;20085;-87
2023/01/01 08:40:48;;;;;;;28.15;22.38;;;;;;;30.80;18.28;102430.25;5136319;27;20031;-85
2023/01/01 08:43:14;;;;;;;26.48;21.08;;;;;;;30.91;18.21;102429.34;5149447;27;20058;-88
2023/01/01 08:45:40;;;;;;;28.65;22.15;;;;;;;31.01;17.90;102397.25;5132490;28;20023;-87
2023/01/01 08:48:08;;;;;;;32.00;24.40;;;;;;;32.11;17.05;102408.31;5126298;28;20016;-89
2023/01/01 08:50:35;;;;;;;34.45;27.45;;;;;;;32.55;16.98;102397.00;5123562;28;20034;-88
2023/01/01 08:53:01;;;;;;;36.88;28.08;;;;;;;33.20;16.40;102406.03;5124648;27;20026;-90
2023/01/01 08:55:26;;;;;;;39.03;26.33;;;;;;;33.55;15.99;102401.69;5128987;28;20028;-90
2023/01/01 08:57:54;;;;;;;34.30;26.83;;;;;;;33.99;15.68;102401.25;5138116;27;20023;-89
2023/01/01 09:00:23;;;;;;;34.00;27.30;;;;;;;34.55;14.97;102412.44;5149355;27;20023;-89
2023/01/01 09:02:48;;;;;;;37.03;28.40;;;;;;;35.09;14.60;102420.16;5145873;27;20031;-90
2023/01/01 09:05:14;;;;;;;37.40;29.35;;;;;;;35.25;14.51;102400.56;5138205;27;20018;-87
2023/01/01 09:07:42;;;;;;;37.63;29.50;;;;;;;36.08;14.06;102408.19;5139447;27;20034;-87
2023/01/01 09:10:11;;;;;;;30.80;24.42;;;;;;;33.18;15.60;102391.53;5145749;27;20023;-88
2023/01/01 09:12:36;;;;;;;32.05;22.80;;;;;;;31.43;17.47;102405.06;5142714;27;20253;-88
2023/01/01 09:15:13;;;;;;;26.60;21.63;;;;;;;32.89;16.08;102394.69;5147091;27;20019;-89
2023/01/01 09:17:38;;;;;;;28.35;21.10;;;;;;;33.51;15.29;102367.13;5109611;27;20031;-89
2023/01/01 09:20:04;;;;;;;28.27;20.83;;;;;;;34.17;14.81;102399.91;5149546;27;20493;-88
2023/01/01 09:22:30;;;;;;;21.80;18.60;;;;;;;34.08;15.16;102390.38;5130220;27;20054;-88
2023/01/01 09:24:56;;;;;;;20.38;17.33;;;;;;;34.62;14.26;102399.03;5149081;27;20043;-88
2023/01/01 09:27:24;;;;;;;23.13;17.77;;;;;;;33.73;15.10;102390.06;5128921;27;20058;-90
2023/01/01 09:29:50;;;;;;;17.90;15.93;;;;;;;34.52;14.85;102393.47;5149539;27;20023;-89
2023/01/01 09:32:17;;;;;;;21.45;16.58;;;;;;;33.87;15.24;102383.94;5148285;27;20034;-89
2023/01/01 09:34:42;;;;;;;18.85;15.93;;;;;;;34.44;14.48;102388.44;5134248;27;20027;-89
2023/01/01 09:37:08;;;;;;;22.20;16.05;;;;;;;34.74;14.82;102386.75;5127771;27;20019;-89
2023/01/01 09:39:34;;;;;;;18.73;16.60;;;;;;;35.14;13.90;102370.97;5142524;27;20031;-87
2023/01/01 09:42:41;;;;;;;20.83;17.40;;;;;;;35.48;13.85;102377.50;5142569;27;20026;-89
2023/01/01 09:45:17;;;;;;;21.95;16.85;;;;;;;36.20;13.30;102377.06;5131031;27;20039;-88
2023/01/01 09:47:50;;;;;;;17.42;15.50;;;;;;;36.10;13.04;102365.91;5127934;27;20027;-88
2023/01/01 09:50:35;;;;;;;18.77;14.68;;;;;;;35.74;13.59;102382.16;5118932;27;20034;-89
2023/01/01 09:53:08;;;;;;;17.52;14.18;;;;;;;35.14;13.95;102362.59;5138865;27;20031;-89
2023/01/01 09:56:12;;;;;;;18.98;14.50;;;;;;;33.85;15.08;102373.06;5099785;28;20054;-87
2023/01/01 09:58:37;;;;;;;17.90;15.02;;;;;;;33.78;14.97;102362.16;5008034;28;20077;-89
2023/01/01 10:01:14;;;;;;;19.08;16.02;;;;;;;33.05;15.37;102375.31;5104508;28;20060;-88
2023/01/01 10:03:41;;;;;;;21.63;16.77;;;;;;;33.48;15.28;102362.91;5138775;28;20032;-90
2023/01/01 10:06:32;;;;;;;21.25;16.83;;;;;;;34.51;14.95;102361.06;5147296;27;20090;-88
2023/01/01 10:09:19;;;;;;;20.33;15.68;;;;;;;35.91;13.36;102355.41;5123860;28;20039;-89
2023/01/01 10:11:49;;;;;;;20.23;15.75;;;;;;;36.45;13.11;102355.50;5146921;27;20023;-88
2023/01/01 10:14:25;;;;;;;26.27;18.63;;;;;;;36.82;13.27;102337.22;5124644;27;20056;-87
2023/01/01 10:16:55;;;;;;;26.00;17.55;;;;;;;37.27;12.46;102332.16;5116351;27;20019;-89
2023/01/01 10:19:35;;;;;;;19.88;15.45;;;;;;;36.60;12.86;102347.00;5121205;28;20055;-87
2023/01/01 10:22:14;;;;;;;22.08;14.73;;;;;;;35.26;13.66;102312.75;5142811;27;20043;-89
2023/01/01 10:24:48;;;;;;;17.88;14.70;;;;;;;36.53;12.88;102340.88;5125092;27;20054;-90
2023/01/01 10:27:38;;;;;;;21.88;16.25;;;;;;;37.24;12.79;102339.19;5127070;28;20035;-90
2023/01/01 10:30:15;;;;;;;17.65;15.27;;;;;;;37.62;12.34;102338.38;5137461;27;20058;-89
2023/01/01 10:32:42;;;;;;;21.70;16.75;;;;;;;37.84;12.12;102318.09;5127038;27;20023;-88
2023/01/01 10:35:16;;;;;;;20.38;16.45;;;;;;;38.52;11.97;102327.88;5149962;27;20027;-89
2023/01/01 10:37:41;;;;;;;17.65;14.93;;;;;;;37.89;11.79;102324.47;5143508;27;20474;-89
2023/01/01 10:40:18;;;;;;;12.73;11.05;;;;;;;35.57;13.18;102319.00;5124071;27;20047;-88
2023/01/01 10:42:49;;;;;;;15.32;11.93;;;;;;;34.42;14.01;102327.31;5118929;27;20054;-89
2023/01/01 10:45:15;;;;;;;13.43;11.13;;;;;;;34.50;14.08;102311.94;5135766;27;20023;-88
2023/01/01 10:48:19;;;;;;;13.02;10.82;;;;;;;35.35;13.61;102307.41;5152679;27;20031;-89
2023/01/01 10:51:00;;;;;;;10.90;9.70;;;;;;;35.17;13.35;102300.53;5153247;27;20045;-87
2023/01/01 10:53:27;;;;;;;13.00;9.52;;;;;;;35.28;13.36;102296.53;5147358;27;20015;-89
2023/01/01 10:56:09;;;;;;;12.70;10.25;;;;;;;34.76;13.81;102304.31;5128160;27;20031;-90
2023/01/01 10:58:44;;;;;;;13.25;10.00;;;;;;;35.65;13.32;102304.41;5147300;27;20044;-89
2023/01/01 11:01:19;;;;;;;14.40;9.52;;;;;;;34.06;14.01;102287.41;5144728;27;20030;-89
2023/01/01 11:03:59;;;;;;;12.73;8.73;;;;;;;33.40;14.73;102289.03;5126621;27;20031;-88
2023/01/01 11:06:31;;;;;;;9.98;8.70;;;;;;;34.53;14.38;102277.84;5110595;28;20088;-90
2023/01/01 11:08:58;;;;;;;11.25;8.45;;;;;;;34.70;14.02;102288.72;5141790;27;20027;-88
2023/01/01 11:11:35;;;;;;;19.85;8.65;;;;;;;34.20;13.68;102268.16;5126602;27;20094;-88
2023/01/01 11:14:03;;;;;;;11.75;7.97;;;;;;;34.49;13.98;102290.72;5138954;27;20031;-88
2023/01/01 11:16:28;;;;;;;10.25;8.07;;;;;;;35.24;13.76;102281.50;5108957;27;20027;-88
2023/01/01 11:19:05;;;;;;;8.93;7.05;;;;;;;33.31;14.52;102281.50;5142319;27;20027;-88
2023/01/01 11:21:31;;;;;;;11.50;7.53;;;;;;;32.97;15.03;102276.38;5127284;27;20390;-88
2023/01/01 11:24:20;;;;;;;8.68;7.20;;;;;;;34.10;14.12;102296.94;5136310;27;20027;-88
2023/01/01 11:26:46;;;;;;;8.13;6.82;;;;;;;34.81;13.84;102278.31;5129788;27;20146;-87
2023/01/01 11:29:15;;;;;;;11.02;6.72;;;;;;;35.22;13.69;102298.53;5121925;27;20051;-88
2023/01/01 11:31:40;;;;;;;8.02;5.95;;;;;;;35.46;12.94;102262.31;5149668;27;21445;-89
2023/01/01 11:34:26;;;;;;;10.35;6.50;;;;;;;35.21;13.31;102259.69;5113449;28;20027;-87